Weather Station Data

Station Data Captured at Five Minute Intervals Since Midnight Local Time


Date Time Temp. RH % Dew Pt. Wind Speed Wind Dir. Peak Wind Wind Chill Pressure Precip. Solar W/m2 ET
9/21/19 5:25p 85.7 47 63.1 3.0 S 7.0 85.7 30.088 0.00 73 0.000
9/21/19 5:20p 85.8 47 63.2 3.0 SW 8.0 85.8 30.090 0.00 74 0.000
9/21/19 5:15p 85.8 47 63.2 3.0 SSE 10.0 85.8 30.087 0.00 76 0.000
9/21/19 5:10p 85.9 47 63.3 5.0 SSW 9.0 85.9 30.090 0.00 76 0.000
9/21/19 5:05p 86.0 47 63.4 5.0 SSW 15.0 86.0 30.088 0.00 81 0.000
9/21/19 5:00p 86.0 48 64.0 2.0 SSE 5.0 86.0 30.090 0.00 91 0.009
9/21/19 4:55p 85.9 48 63.9 3.0 S 9.0 85.9 30.090 0.00 93 0.000
9/21/19 4:50p 86.0 48 64.0 2.0 SSW 4.0 86.0 30.093 0.00 91 0.000
9/21/19 4:45p 86.1 48 64.1 3.0 SSW 9.0 86.1 30.097 0.00 101 0.000
9/21/19 4:40p 86.4 47 63.8 5.0 S 9.0 86.4 30.097 0.00 144 0.000
9/21/19 4:35p 86.7 48 64.7 3.0 SSW 7.0 86.7 30.099 0.00 130 0.000
9/21/19 4:30p 87.0 47 64.3 3.0 SSW 7.0 87.0 30.097 0.00 169 0.000
9/21/19 4:25p 87.3 48 65.2 4.0 SSW 8.0 87.3 30.099 0.00 506 0.000
9/21/19 4:20p 86.9 49 65.4 2.0 SSW 7.0 86.9 30.101 0.00 539 0.000
9/21/19 4:15p 86.5 47 63.9 3.0 SSW 7.0 86.5 30.103 0.00 573 0.000
9/21/19 4:10p 86.6 47 64.0 3.0 SSW 7.0 86.6 30.105 0.00 182 0.000
9/21/19 4:05p 87.4 46 64.1 3.0 SSW 6.0 87.4 30.106 0.00 139 0.000
9/21/19 4:00p 87.8 47 65.1 2.0 SSW 7.0 87.8 30.107 0.00 544 0.018
9/21/19 3:55p 87.3 47 64.6 2.0 S 6.0 87.3 30.108 0.00 566 0.000
9/21/19 3:50p 87.3 47 64.6 3.0 SSW 7.0 87.3 30.110 0.00 552 0.000
9/21/19 3:45p 87.4 46 64.1 2.0 S 5.0 87.4 30.112 0.00 571 0.000
9/21/19 3:40p 87.6 46 64.3 3.0 SSW 9.0 87.6 30.116 0.00 598 0.000
9/21/19 3:35p 87.2 47 64.5 3.0 W 9.0 87.2 30.116 0.00 613 0.000
9/21/19 3:30p 87.0 47 64.3 3.0 SSW 8.0 87.0 30.119 0.00 614 0.000
9/21/19 3:25p 86.9 47 64.2 3.0 S 8.0 86.9 30.121 0.00 625 0.000
9/21/19 3:20p 87.0 47 64.3 3.0 SSW 9.0 87.0 30.121 0.00 635 0.000
9/21/19 3:15p 87.0 46 63.7 3.0 S 7.0 87.0 30.124 0.00 645 0.000
9/21/19 3:10p 87.6 46 64.3 3.0 S 9.0 87.6 30.127 0.00 649 0.000
9/21/19 3:05p 87.5 47 64.8 2.0 S 6.0 87.5 30.127 0.00 658 0.000
9/21/19 3:00p 87.2 47 64.5 2.0 SSW 6.0 87.2 30.130 0.00 675 0.020
9/21/19 2:55p 86.5 47 63.9 4.0 S 9.0 86.5 30.134 0.00 684 0.000
9/21/19 2:50p 86.4 48 64.4 4.0 S 12.0 86.4 30.135 0.00 701 0.000
9/21/19 2:45p 86.3 49 64.9 5.0 S 8.0 86.3 30.137 0.00 716 0.000
9/21/19 2:40p 86.8 46 63.5 4.0 S 9.0 86.8 30.135 0.00 735 0.000
9/21/19 2:35p 86.9 47 64.2 5.0 S 10.0 86.9 30.138 0.00 714 0.000
9/21/19 2:30p 86.7 49 65.3 3.0 S 6.0 86.7 30.139 0.00 704 0.000
9/21/19 2:25p 86.7 48 64.7 4.0 S 10.0 86.7 30.139 0.00 714 0.000
9/21/19 2:20p 86.7 49 65.3 3.0 S 12.0 86.7 30.138 0.00 708 0.000
9/21/19 2:15p 86.5 49 65.1 4.0 S 10.0 86.5 30.141 0.00 703 0.000
9/21/19 2:10p 86.4 49 65.0 3.0 NW 8.0 86.4 30.143 0.00 697 0.000
9/21/19 2:05p 85.8 51 65.6 3.0 SSE 9.0 85.8 30.143 0.00 671 0.000
9/21/19 2:00p 85.5 50 64.7 5.0 S 11.0 85.5 30.146 0.00 378 0.019
9/21/19 1:55p 86.1 50 65.3 3.0 SSE 9.0 86.1 30.150 0.00 523 0.000
9/21/19 1:50p 85.9 50 65.1 4.0 SSW 9.0 85.9 30.153 0.00 919 0.000
9/21/19 1:45p 85.7 52 66.0 5.0 S 10.0 85.7 30.151 0.00 914 0.000
9/21/19 1:40p 85.5 52 65.9 4.0 S 11.0 85.5 30.154 0.00 772 0.000
9/21/19 1:35p 85.2 52 65.6 4.0 S 7.0 85.2 30.155 0.00 385 0.000
9/21/19 1:30p 85.6 54 67.0 3.0 S 9.0 85.6 30.158 0.00 584 0.000
9/21/19 1:25p 85.2 54 66.7 4.0 S 10.0 85.2 30.158 0.00 714 0.000
9/21/19 1:20p 85.2 54 66.7 4.0 S 9.0 85.2 30.158 0.00 711 0.000
9/21/19 1:15p 85.2 53 66.1 4.0 SSE 9.0 85.2 30.162 0.00 716 0.000
9/21/19 1:10p 85.0 55 67.0 3.0 S 10.0 85.0 30.161 0.00 720 0.000
9/21/19 1:05p 84.6 55 66.7 3.0 WNW 8.0 84.6 30.164 0.00 709 0.000
9/21/19 1:00p 84.5 55 66.6 5.0 S 11.0 84.5 30.164 0.00 703 0.019
9/21/19 12:55p 84.7 57 67.8 3.0 SSW 7.0 84.7 30.167 0.00 698 0.000
9/21/19 12:50p 84.6 56 67.2 2.0 SSE 9.0 84.6 30.170 0.00 701 0.000
9/21/19 12:45p 84.0 57 67.1 3.0 SSE 7.0 84.0 30.171 0.00 693 0.000
9/21/19 12:40p 83.6 58 67.3 3.0 S 7.0 83.6 30.175 0.00 678 0.000
9/21/19 12:35p 83.5 58 67.2 4.0 S 7.0 83.5 30.175 0.00 674 0.000
9/21/19 12:30p 83.5 58 67.2 3.0 S 9.0 83.5 30.177 0.00 667 0.000
9/21/19 12:25p 83.0 58 66.7 4.0 S 8.0 83.0 30.179 0.00 656 0.000
9/21/19 12:20p 83.0 59 67.2 3.0 S 8.0 83.0 30.180 0.00 645 0.000
9/21/19 12:15p 82.6 59 66.8 4.0 S 9.0 82.6 30.181 0.00 639 0.000
9/21/19 12:10p 82.4 61 67.6 3.0 S 8.0 82.4 30.182 0.00 631 0.000
9/21/19 12:05p 81.7 61 66.9 3.0 S 7.0 81.7 30.184 0.00 627 0.000
9/21/19 12:00p 81.4 62 67.1 3.0 S 6.0 81.4 30.185 0.00 616 0.006
9/21/19 11:55a 81.2 62 66.9 3.0 S 8.0 81.2 30.185 0.00 409 0.000
9/21/19 11:50a 80.6 63 66.8 4.0 S 8.0 80.6 30.187 0.00 125 0.000
9/21/19 11:45a 80.3 63 66.6 3.0 SSE 6.0 80.3 30.187 0.00 105 0.000
9/21/19 11:40a 80.2 66 67.8 2.0 W 5.0 80.2 30.189 0.00 110 0.000
9/21/19 11:35a 79.6 66 67.2 1.0 WNW 4.0 79.6 30.189 0.00 128 0.000
9/21/19 11:30a 79.2 66 66.9 3.0 S 12.0 79.2 30.189 0.00 97 0.000
9/21/19 11:25a 78.7 68 67.2 2.0 SSW 5.0 78.7 30.188 0.00 97 0.000
9/21/19 11:20a 78.3 67 66.4 3.0 S 9.0 78.3 30.193 0.00 94 0.000
9/21/19 11:15a 78.3 67 66.4 3.0 S 8.0 78.3 30.192 0.00 100 0.000
9/21/19 11:10a 78.1 69 67.1 3.0 S 8.0 78.1 30.193 0.00 116 0.000
9/21/19 11:05a 77.7 69 66.7 2.0 ESE 5.0 77.7 30.192 0.00 86 0.000
9/21/19 11:00a 77.2 70 66.7 1.0 WSW 3.0 77.2 30.193 0.00 84 0.003
9/21/19 10:55a 76.9 71 66.8 3.0 S 9.0 76.9 30.194 0.00 82 0.000
9/21/19 10:50a 76.5 71 66.4 3.0 S 7.0 76.5 30.194 0.00 80 0.000
9/21/19 10:45a 76.1 72 66.4 2.0 S 5.0 76.1 30.193 0.00 76 0.000
9/21/19 10:40a 75.8 72 66.1 2.0 SSW 6.0 75.8 30.196 0.00 85 0.000
9/21/19 10:35a 75.4 72 65.7 3.0 SSW 8.0 75.4 30.193 0.00 84 0.000
9/21/19 10:30a 75.1 72 65.5 3.0 S 8.0 75.1 30.191 0.00 90 0.000
9/21/19 10:25a 74.8 73 65.6 2.0 WSW 7.0 74.8 30.191 0.00 82 0.000
9/21/19 10:20a 74.6 73 65.4 3.0 SSE 6.0 74.6 30.189 0.00 95 0.000
9/21/19 10:15a 74.5 73 65.3 3.0 SSW 9.0 74.5 30.190 0.00 119 0.000
9/21/19 10:10a 74.4 73 65.2 4.0 SSW 8.0 74.4 30.189 0.00 184 0.000
9/21/19 10:05a 74.1 74 65.3 3.0 SSW 6.0 74.1 30.189 0.00 170 0.000
9/21/19 10:00a 73.7 74 64.9 5.0 SSW 8.0 73.7 30.188 0.00 105 0.002
9/21/19 9:55a 73.6 74 64.8 4.0 SSW 10.0 73.6 30.187 0.00 76 0.000
9/21/19 9:50a 73.5 74 64.7 4.0 S 10.0 73.5 30.187 0.00 70 0.000
9/21/19 9:45a 73.2 75 64.8 2.0 S 6.0 73.2 30.185 0.00 70 0.000
9/21/19 9:40a 73.0 75 64.6 3.0 S 8.0 73.0 30.186 0.00 65 0.000
9/21/19 9:35a 72.8 75 64.4 3.0 SSW 7.0 72.8 30.183 0.00 67 0.000
9/21/19 9:30a 72.5 76 64.5 3.0 S 7.0 72.5 30.182 0.00 54 0.000
9/21/19 9:25a 72.3 76 64.3 4.0 SSE 9.0 72.3 30.181 0.00 51 0.000
9/21/19 9:20a 72.0 77 64.4 4.0 S 6.0 72.0 30.180 0.00 51 0.000
9/21/19 9:15a 71.6 77 64.0 3.0 SSW 8.0 71.6 30.181 0.00 47 0.000
9/21/19 9:10a 71.3 78 64.1 3.0 S 7.0 71.3 30.179 0.00 46 0.000
9/21/19 9:05a 70.9 78 63.7 3.0 S 6.0 70.9 30.177 0.00 45 0.000
9/21/19 9:00a 70.6 79 63.8 3.0 S 6.0 70.6 30.177 0.00 43 0.001
9/21/19 8:55a 70.3 79 63.5 2.0 SSE 5.0 70.3 30.177 0.00 42 0.000
9/21/19 8:50a 70.0 79 63.2 2.0 S 4.0 70.0 30.177 0.00 40 0.000
9/21/19 8:45a 69.7 80 63.3 2.0 SSW 4.0 69.7 30.176 0.00 41 0.000
9/21/19 8:40a 69.5 80 63.1 2.0 S 4.0 69.5 30.178 0.00 37 0.000
9/21/19 8:35a 69.2 80 62.8 3.0 SSW 6.0 69.2 30.179 0.00 34 0.000
9/21/19 8:30a 69.0 81 62.9 2.0 S 5.0 69.0 30.176 0.00 33 0.000
9/21/19 8:25a 68.8 81 62.7 2.0 SSW 5.0 68.8 30.177 0.00 30 0.000
9/21/19 8:20a 68.6 81 62.5 2.0 S 4.0 68.6 30.176 0.00 28 0.000
9/21/19 8:15a 68.5 82 62.8 2.0 SSW 5.0 68.5 30.175 0.00 26 0.000
9/21/19 8:10a 68.4 82 62.7 2.0 SSW 4.0 68.4 30.175 0.00 24 0.000
9/21/19 8:05a 68.3 82 62.6 2.0 SSW 6.0 68.3 30.174 0.00 21 0.000
9/21/19 8:00a 68.2 82 62.5 2.0 SSW 3.0 68.2 30.171 0.00 18 0.001
9/21/19 7:55a 68.2 82 62.5 2.0 SSW 4.0 68.2 30.172 0.00 14 0.000
9/21/19 7:50a 68.2 82 62.5 2.0 S 4.0 68.2 30.169 0.00 9 0.000
9/21/19 7:45a 68.2 82 62.5 2.0 S 4.0 68.2 30.170 0.00 4 0.000
9/21/19 7:40a 68.3 82 62.6 1.0 SSW 3.0 68.3 30.171 0.00 0 0.000
9/21/19 7:35a 68.4 82 62.7 1.0 SSW 4.0 68.4 30.169 0.00 0 0.000
9/21/19 7:30a 68.4 82 62.7 2.0 S 4.0 68.4 30.169 0.00 0 0.000
9/21/19 7:25a 68.4 82 62.7 2.0 SSW 4.0 68.4 30.168 0.00 0 0.000
9/21/19 7:20a 68.3 82 62.6 2.0 S 4.0 68.3 30.165 0.00 0 0.000
9/21/19 7:15a 68.4 82 62.7 1.0 S 3.0 68.4 30.165 0.00 0 0.000
9/21/19 7:10a 68.4 82 62.7 2.0 S 3.0 68.4 30.164 0.00 0 0.000
9/21/19 7:05a 68.4 82 62.7 2.0 S 3.0 68.4 30.164 0.00 0 0.000
9/21/19 7:00a 68.3 82 62.6 2.0 S 4.0 68.3 30.164 0.00 0 0.001
9/21/19 6:55a 68.2 82 62.5 1.0 S 3.0 68.2 30.162 0.00 0 0.000
9/21/19 6:50a 68.3 82 62.6 1.0 S 3.0 68.3 30.164 0.00 0 0.000
9/21/19 6:45a 68.3 82 62.6 1.0 S 3.0 68.3 30.162 0.00 0 0.000
9/21/19 6:40a 68.3 82 62.6 1.0 S 2.0 68.3 30.161 0.00 0 0.000
9/21/19 6:35a 68.3 82 62.6 1.0 S 2.0 68.3 30.161 0.00 0 0.000
9/21/19 6:30a 68.3 82 62.6 1.0 S 2.0 68.3 30.160 0.00 0 0.000
9/21/19 6:25a 68.3 82 62.6 0.0 S 2.0 68.3 30.160 0.00 0 0.000
9/21/19 6:20a 68.3 82 62.6 1.0 S 3.0 68.3 30.158 0.00 0 0.000
9/21/19 6:15a 68.4 82 62.7 1.0 S 3.0 68.4 30.157 0.00 0 0.000
9/21/19 6:10a 68.4 82 62.7 1.0 SSW 3.0 68.4 30.153 0.00 0 0.000
9/21/19 6:05a 68.4 82 62.7 1.0 SSW 2.0 68.4 30.154 0.00 0 0.000
9/21/19 6:00a 68.4 82 62.7 1.0 SSW 2.0 68.4 30.153 0.00 0 0.001
9/21/19 5:55a 68.5 82 62.8 1.0 S 3.0 68.5 30.150 0.00 0 0.000
9/21/19 5:50a 68.5 82 62.8 2.0 S 3.0 68.5 30.147 0.00 0 0.000
9/21/19 5:45a 68.6 82 62.9 1.0 S 3.0 68.6 30.147 0.00 0 0.000
9/21/19 5:40a 68.7 82 63.0 1.0 S 3.0 68.7 30.147 0.00 0 0.000
9/21/19 5:35a 68.8 82 63.1 1.0 S 3.0 68.8 30.144 0.00 0 0.000
9/21/19 5:30a 68.8 82 63.1 2.0 S 3.0 68.8 30.142 0.00 0 0.000
9/21/19 5:25a 68.9 82 63.2 1.0 S 2.0 68.9 30.142 0.00 0 0.000
9/21/19 5:20a 69.0 81 62.9 1.0 SSW 4.0 69.0 30.143 0.00 0 0.000
9/21/19 5:15a 69.2 81 63.1 2.0 SSW 3.0 69.2 30.143 0.00 0 0.000
9/21/19 5:10a 69.3 81 63.2 1.0 SSW 3.0 69.3 30.138 0.00 0 0.000
9/21/19 5:05a 69.4 81 63.3 1.0 SSW 2.0 69.4 30.140 0.00 0 0.000
9/21/19 5:00a 69.4 81 63.3 1.0 SSW 4.0 69.4 30.140 0.00 0 0.001
9/21/19 4:55a 69.4 81 63.3 1.0 SSW 3.0 69.4 30.141 0.00 0 0.000
9/21/19 4:50a 69.4 81 63.3 2.0 SSW 3.0 69.4 30.140 0.00 0 0.000
9/21/19 4:45a 69.4 81 63.3 1.0 SSW 3.0 69.4 30.140 0.00 0 0.000
9/21/19 4:40a 69.5 81 63.4 1.0 SSW 4.0 69.5 30.137 0.00 0 0.000
9/21/19 4:35a 69.5 81 63.4 2.0 S 4.0 69.5 30.135 0.00 0 0.000
9/21/19 4:30a 69.5 81 63.4 2.0 S 4.0 69.5 30.134 0.00 0 0.000
9/21/19 4:25a 69.5 81 63.4 2.0 SSW 3.0 69.5 30.133 0.00 0 0.000
9/21/19 4:20a 69.5 81 63.4 2.0 S 5.0 69.5 30.133 0.00 0 0.000
9/21/19 4:15a 69.5 81 63.4 2.0 S 3.0 69.5 30.132 0.00 0 0.000
9/21/19 4:10a 69.5 81 63.4 1.0 S 3.0 69.5 30.130 0.00 0 0.000
9/21/19 4:05a 69.5 81 63.4 1.0 S 3.0 69.5 30.131 0.00 0 0.000
9/21/19 4:00a 69.6 81 63.5 1.0 S 2.0 69.6 30.130 0.00 0 0.001
9/21/19 3:55a 69.6 81 63.5 1.0 S 3.0 69.6 30.132 0.00 0 0.000
9/21/19 3:50a 69.6 81 63.5 1.0 S 2.0 69.6 30.131 0.00 0 0.000
9/21/19 3:45a 69.6 82 63.9 1.0 S 3.0 69.6 30.132 0.00 0 0.000
9/21/19 3:40a 69.7 81 63.6 1.0 S 2.0 69.7 30.129 0.00 0 0.000
9/21/19 3:35a 69.8 81 63.7 1.0 S 2.0 69.8 30.130 0.00 0 0.000
9/21/19 3:30a 69.9 81 63.8 1.0 S 3.0 69.9 30.128 0.00 0 0.000
9/21/19 3:25a 69.9 81 63.8 1.0 S 2.0 69.9 30.128 0.00 0 0.000
9/21/19 3:20a 70.0 81 63.9 1.0 S 3.0 70.0 30.129 0.00 0 0.000
9/21/19 3:15a 70.2 81 64.1 1.0 S 2.0 70.2 30.126 0.00 0 0.000
9/21/19 3:10a 70.4 81 64.3 1.0 S 2.0 70.4 30.128 0.00 0 0.000
9/21/19 3:05a 70.6 81 64.5 1.0 S 2.0 70.6 30.130 0.00 0 0.000
9/21/19 3:00a 70.6 81 64.5 1.0 S 4.0 70.6 30.127 0.00 0 0.001
9/21/19 2:55a 70.7 80 64.2 1.0 S 2.0 70.7 30.126 0.00 0 0.000
9/21/19 2:50a 70.8 80 64.3 1.0 S 3.0 70.8 30.126 0.00 0 0.000
9/21/19 2:45a 70.9 80 64.4 1.0 S 3.0 70.9 30.128 0.00 0 0.000
9/21/19 2:40a 71.0 80 64.5 1.0 S 2.0 71.0 30.126 0.00 0 0.000
9/21/19 2:35a 71.0 80 64.5 1.0 S 3.0 71.0 30.127 0.00 0 0.000
9/21/19 2:30a 71.1 80 64.6 1.0 S 3.0 71.1 30.127 0.00 0 0.000
9/21/19 2:25a 71.1 80 64.6 2.0 S 3.0 71.1 30.126 0.00 0 0.000
9/21/19 2:20a 71.2 80 64.7 1.0 S 3.0 71.2 30.124 0.00 0 0.000
9/21/19 2:15a 71.3 80 64.8 1.0 S 3.0 71.3 30.125 0.00 0 0.000
9/21/19 2:10a 71.4 80 64.9 1.0 S 2.0 71.4 30.124 0.00 0 0.000
9/21/19 2:05a 71.5 80 65.0 1.0 S 3.0 71.5 30.123 0.00 0 0.000
9/21/19 2:00a 71.6 80 65.1 1.0 S 2.0 71.6 30.123 0.00 0 0.001
9/21/19 1:55a 71.7 80 65.2 1.0 S 2.0 71.7 30.125 0.00 0 0.000
9/21/19 1:50a 71.8 80 65.3 1.0 S 2.0 71.8 30.125 0.00 0 0.000
9/21/19 1:45a 71.9 80 65.4 1.0 S 2.0 71.9 30.125 0.00 0 0.000
9/21/19 1:40a 72.0 80 65.5 1.0 S 2.0 72.0 30.125 0.00 0 0.000
9/21/19 1:35a 72.1 79 65.2 1.0 S 2.0 72.1 30.123 0.00 0 0.000
9/21/19 1:30a 72.2 79 65.3 1.0 S 3.0 72.2 30.122 0.00 0 0.000
9/21/19 1:25a 72.3 79 65.4 1.0 S 3.0 72.3 30.121 0.00 0 0.000
9/21/19 1:20a 72.5 79 65.6 1.0 S 3.0 72.5 30.122 0.00 0 0.000
9/21/19 1:15a 72.6 79 65.7 2.0 S 3.0 72.6 30.125 0.00 0 0.000
9/21/19 1:10a 72.6 79 65.7 2.0 S 4.0 72.6 30.124 0.00 0 0.000
9/21/19 1:05a 72.8 79 65.9 1.0 S 4.0 72.8 30.125 0.00 0 0.000
9/21/19 1:00a 72.9 79 66.0 2.0 S 3.0 72.9 30.123 0.00 0 0.001
9/21/19 12:55a 73.0 79 66.1 2.0 S 3.0 73.0 30.125 0.00 0 0.000
9/21/19 12:50a 73.2 78 65.9 2.0 S 3.0 73.2 30.128 0.00 0 0.000
9/21/19 12:45a 73.3 78 66.0 2.0 SSW 3.0 73.3 30.129 0.00 0 0.000
9/21/19 12:40a 73.4 78 66.1 2.0 SSW 4.0 73.4 30.129 0.00 0 0.000
9/21/19 12:35a 73.5 78 66.2 2.0 SSW 3.0 73.5 30.129 0.00 0 0.000
9/21/19 12:30a 73.6 78 66.3 1.0 SSW 3.0 73.6 30.130 0.00 0 0.000
9/21/19 12:25a 73.7 78 66.4 2.0 SSW 3.0 73.7 30.131 0.00 0 0.000
9/21/19 12:20a 73.8 78 66.5 1.0 SSW 4.0 73.8 30.130 0.00 0 0.000
9/21/19 12:15a 73.8 78 66.5 2.0 SSW 4.0 73.8 30.130 0.00 0 0.000
9/21/19 12:10a 73.7 78 66.4 2.0 SSW 4.0 73.7 30.127 0.00 0 0.000
9/21/19 12:05a 73.7 79 66.8 2.0 SSW 5.0 73.7 30.128 0.00 0 0.000
9/21/19 12:00a 73.6 79 66.7 2.0 SSW 4.0 73.6 30.128 0.00 0 0.001

13,004 Page Views